Time;durP1;ratioP1;P1;durP2;ratioP2;P2;SDS_P1;SDS_P2;PMS_P1;PMS_P2;Temp;Humidity;BMP_temperature;BMP_pressure;BME280_temperature;BME280_humidity;BME280_pressure;Samples;Min_cycle;Max_cycle;Signal;HPM_P1;HPM_P2
2022/11/03 00:02:18;;;;;;;;;;;11.90;99.90;;;;;;5068218;28;20397;-76
2022/11/03 00:04:44;;;;;;;7.00;1.92;;;11.90;99.90;;;;;;5067506;28;20002;-77
2022/11/03 00:07:09;;;;;;;;;;;11.80;99.90;;;;;;5067920;28;20051;-76
2022/11/03 00:09:35;;;;;;;5.43;2.08;;;11.80;99.90;;;;;;5068783;28;19931;-76
2022/11/03 00:12:01;;;;;;;;;;;11.80;99.90;;;;;;5067451;28;20048;-76
2022/11/03 00:14:27;;;;;;;5.88;1.90;;;11.70;99.90;;;;;;5069095;28;19912;-77
2022/11/03 00:16:53;;;;;;;6.57;1.73;;;11.70;99.90;;;;;;5067386;28;20067;-76
2022/11/03 00:19:19;;;;;;;8.00;1.88;;;11.60;99.90;;;;;;5068783;28;20500;-76
2022/11/03 00:21:44;;;;;;;;;;;11.80;99.90;;;;;;5068131;28;20090;-77
2022/11/03 00:24:11;;;;;;;3.40;1.83;;;11.70;99.90;;;;;;5068841;28;20389;-76
2022/11/03 00:26:37;;;;;;;4.45;2.03;;;11.70;99.90;;;;;;5067442;28;20028;-76
2022/11/03 00:29:06;;;;;;;;;;;11.60;99.90;;;;;;5069079;28;20021;-76
2022/11/03 00:31:34;;;;;;;3.58;1.60;;;11.60;99.90;;;;;;5068586;28;19944;-76
2022/11/03 00:34:01;;;;;;;6.88;1.98;;;11.60;99.90;;;;;;5067494;28;20460;-76
2022/11/03 00:36:32;;;;;;;5.43;2.15;;;11.50;99.90;;;;;;5068858;28;20067;-77
2022/11/03 00:38:58;;;;;;;5.22;1.67;;;11.40;99.90;;;;;;5067295;28;20060;-76
2022/11/03 00:41:24;;;;;;;;;;;11.40;99.90;;;;;;5068812;28;20074;-77
2022/11/03 00:43:50;;;;;;;5.43;2.13;;;11.30;99.90;;;;;;5067248;28;19908;-76
2022/11/03 00:46:17;;;;;;;6.68;1.88;;;11.20;99.90;;;;;;5067837;28;20517;-76
2022/11/03 00:48:43;;;;;;;5.68;1.90;;;11.00;99.90;;;;;;5070818;28;20025;-77
2022/11/03 00:51:10;;;;;;;;;;;10.90;99.90;;;;;;5072535;28;20033;-76
2022/11/03 00:53:38;;;;;;;6.60;2.10;;;10.80;99.90;;;;;;5070817;28;19920;-77
2022/11/03 00:56:06;;;;;;;5.25;1.65;;;10.70;99.90;;;;;;5070638;28;20039;-77
2022/11/03 00:58:32;;;;;;;3.28;1.65;;;10.60;99.90;;;;;;5070940;28;20030;-76
2022/11/03 01:00:58;;;;;;;5.03;2.35;;;10.40;99.90;;;;;;5070514;28;20032;-76
2022/11/03 01:03:25;;;;;;;10.35;2.40;;;10.30;99.90;;;;;;5072160;28;20035;-77
2022/11/03 01:08:35;;;;;;;8.05;3.20;;;10.00;99.90;;;;;;5072607;28;20061;-76
2022/11/03 01:13:58;;;;;;;7.97;3.20;;;9.80;99.90;;;;;;5072512;28;20024;-76
2022/11/03 01:16:24;;;;;;;12.02;4.50;;;9.60;99.90;;;;;;5070818;28;20025;-76
2022/11/03 01:18:50;;;;;;;;;;;9.60;99.90;;;;;;5072502;28;20082;-76
2022/11/03 01:21:16;;;;;;;12.10;4.18;;;9.50;99.90;;;;;;5070883;28;19927;-76
2022/11/03 01:23:42;;;;;;;10.75;4.25;;;9.40;99.90;;;;;;5071274;28;20028;-77
2022/11/03 01:26:09;;;;;;;;;;;9.40;99.90;;;;;;5071556;28;20039;-76
2022/11/03 01:28:36;;;;;;;6.55;3.90;;;9.30;99.90;;;;;;5072383;28;19908;-77
2022/11/03 01:31:04;;;;;;;7.55;3.13;;;9.30;99.90;;;;;;5072155;28;20146;-76
2022/11/03 01:33:29;;;;;;;7.75;2.95;;;9.30;99.90;;;;;;5072259;28;20029;-76
2022/11/03 01:35:55;;;;;;;;;;;9.20;99.90;;;;;;5071477;28;20035;-76
2022/11/03 01:38:20;;;;;;;9.50;3.80;;;9.20;99.90;;;;;;5072345;28;20057;-76
2022/11/03 01:40:46;;;;;;;;;;;9.10;99.90;;;;;;5071284;28;20032;-76
2022/11/03 01:43:20;;;;;;;13.45;4.63;;;9.00;99.90;;;;;;5071360;28;20297;-76
2022/11/03 01:45:47;;;;;;;12.60;5.07;;;9.00;99.90;;;;;;5071436;28;20035;-76
2022/11/03 01:48:13;;;;;;;9.35;4.90;;;8.90;99.90;;;;;;5073231;28;20031;-77
2022/11/03 01:50:39;;;;;;;;;;;8.90;99.90;;;;;;5073076;28;20029;-76
2022/11/03 01:53:06;;;;;;;12.57;6.13;;;8.80;99.90;;;;;;5071161;28;19914;-76
2022/11/03 01:55:35;;;;;;;13.38;6.88;;;8.90;99.90;;;;;;5071412;28;20025;-76
2022/11/03 01:58:17;;;;;;;11.88;6.75;;;8.90;99.90;;;;;;5069505;28;20028;-76
2022/11/03 02:00:47;;;;;;;11.77;5.53;;;8.80;99.90;;;;;;5070911;28;20029;-76
2022/11/03 02:03:14;;;;;;;12.23;6.03;;;8.90;99.90;;;;;;5071449;28;20032;-76
2022/11/03 02:05:40;;;;;;;18.33;6.03;;;8.80;99.90;;;;;;5071243;28;20037;-76
2022/11/03 02:08:17;;;;;;;10.73;5.07;;;8.80;99.90;;;;;;5070001;28;20082;-77
2022/11/03 02:10:46;;;;;;;10.90;5.07;;;8.80;99.90;;;;;;5070913;28;20053;-76
2022/11/03 02:13:19;;;;;;;11.63;6.05;;;8.70;99.90;;;;;;5071332;28;20461;-76
2022/11/03 02:15:49;;;;;;;9.90;5.03;;;8.60;99.90;;;;;;5071589;28;20028;-76
2022/11/03 02:18:16;;;;;;;11.88;5.40;;;8.50;99.90;;;;;;5071238;28;20497;-76
2022/11/03 02:20:44;;;;;;;13.88;5.93;;;8.40;99.90;;;;;;5070820;28;20028;-76
2022/11/03 02:23:31;;;;;;;10.40;6.15;;;8.30;99.90;;;;;;5070861;28;20039;-77
2022/11/03 02:25:58;;;;;;;9.32;4.53;;;8.20;99.90;;;;;;5070413;28;20036;-76
2022/11/03 02:28:27;;;;;;;10.27;5.45;;;8.20;99.90;;;;;;5070870;28;20039;-75
2022/11/03 02:31:17;;;;;;;11.43;4.68;;;8.10;99.90;;;;;;5070725;28;20075;-77
2022/11/03 02:33:54;;;;;;;8.15;5.00;;;8.10;99.90;;;;;;5069900;28;20036;-76
2022/11/03 02:36:31;;;;;;;10.48;5.13;;;8.00;99.90;;;;;;5069529;28;20028;-76
2022/11/03 02:39:02;;;;;;;12.25;5.93;;;7.90;99.90;;;;;;5069229;28;20025;-76
2022/11/03 02:41:30;;;;;;;14.13;5.97;;;7.90;99.90;;;;;;5071278;28;20032;-76
2022/11/03 02:43:57;;;;;;;14.85;6.78;;;7.80;99.90;;;;;;5071058;28;20074;-75
2022/11/03 02:46:24;;;;;;;13.48;5.85;;;7.70;99.90;;;;;;5071277;28;20107;-77
2022/11/03 02:48:51;;;;;;;10.10;6.78;;;7.80;99.90;;;;;;5071003;28;20021;-76
2022/11/03 02:51:16;;;;;;;10.48;5.95;;;7.70;99.90;;;;;;5070719;28;20051;-76
2022/11/03 02:53:45;;;;;;;;;;;7.60;99.90;;;;;;5071465;28;20025;-76
2022/11/03 02:56:18;;;;;;;10.98;4.97;;;7.60;99.90;;;;;;5070011;28;19908;-76
2022/11/03 02:58:50;;;;;;;8.95;4.82;;;7.60;99.90;;;;;;5071115;28;20028;-76
2022/11/03 03:01:33;;;;;;;9.90;4.72;;;7.50;99.90;;;;;;5070734;28;20024;-76
2022/11/03 03:04:21;;;;;;;8.57;5.13;;;7.50;99.90;;;;;;5070803;28;20036;-76
2022/11/03 03:07:00;;;;;;;11.02;5.60;;;7.40;99.90;;;;;;5069658;28;20036;-76
2022/11/03 03:09:34;;;;;;;9.93;4.88;;;7.40;99.90;;;;;;5069010;28;20115;-75
2022/11/03 03:12:02;;;;;;;12.82;5.18;;;7.40;99.90;;;;;;5069473;28;20061;-76
2022/11/03 03:14:36;;;;;;;15.23;5.50;;;7.30;99.90;;;;;;5069691;28;20032;-76
2022/11/03 03:17:17;;;;;;;10.43;5.68;;;7.20;99.90;;;;;;5071325;28;20036;-76
2022/11/03 03:19:49;;;;;;;10.95;6.75;;;7.20;99.90;;;;;;5069506;28;20029;-76
2022/11/03 03:22:34;;;;;;;15.63;9.18;;;7.20;99.90;;;;;;5071192;28;20024;-77
2022/11/03 03:25:09;;;;;;;15.73;7.07;;;7.20;99.90;;;;;;5069386;28;20508;-76
2022/11/03 03:27:40;;;;;;;16.23;8.13;;;7.10;99.90;;;;;;5069946;28;20389;-76
2022/11/03 03:30:07;;;;;;;19.52;7.55;;;7.20;99.90;;;;;;5053165;28;20028;-76
2022/11/03 03:32:37;;;;;;;18.60;7.07;;;7.20;99.90;;;;;;5069641;28;20056;-76
2022/11/03 03:35:06;;;;;;;13.63;6.40;;;7.20;99.90;;;;;;5069263;28;20029;-76
2022/11/03 03:37:36;;;;;;;11.57;6.68;;;7.30;99.90;;;;;;5069538;28;20024;-76
2022/11/03 03:40:07;;;;;;;10.13;6.57;;;7.20;99.90;;;;;;5069780;28;20028;-76
2022/11/03 03:42:35;;;;;;;14.43;6.15;;;7.20;99.90;;;;;;5069723;28;20029;-75
2022/11/03 03:45:01;;;;;;;11.05;6.47;;;7.20;99.90;;;;;;5070206;28;20047;-75
2022/11/03 03:47:32;;;;;;;12.88;7.40;;;7.20;99.90;;;;;;5071718;28;20024;-75
2022/11/03 03:49:59;;;;;;;13.50;7.75;;;7.10;99.90;;;;;;5069988;28;20036;-75
2022/11/03 03:52:26;;;;;;;12.48;7.60;;;7.00;99.90;;;;;;5070401;28;20412;-75
2022/11/03 03:54:51;;;;;;;15.20;9.27;;;7.00;99.90;;;;;;5069699;28;20036;-75
2022/11/03 03:57:19;;;;;;;;;;;7.00;99.90;;;;;;5071398;28;20024;-75
2022/11/03 03:59:45;;;;;;;17.02;7.82;;;6.90;99.90;;;;;;5070882;28;19908;-75
2022/11/03 04:02:12;;;;;;;13.18;7.22;;;6.90;99.90;;;;;;5070082;28;20072;-76
2022/11/03 04:04:38;;;;;;;15.27;7.57;;;6.80;99.90;;;;;;5070686;28;20031;-74
2022/11/03 04:09:48;;;;;;;19.63;7.95;;;6.80;99.90;;;;;;5069859;28;20061;-75
2022/11/03 04:23:15;;;;;;;19.67;10.25;;;6.90;99.90;;;;;;5073301;28;20127;-74
2022/11/03 04:25:46;;;;;;;18.30;10.48;;;6.90;99.90;;;;;;5071525;28;20041;-75
2022/11/03 04:28:13;;;;;;;15.43;9.85;;;7.00;99.90;;;;;;5073109;28;20033;-75
2022/11/03 04:30:39;;;;;;;18.52;10.85;;;7.00;99.90;;;;;;5071935;28;20047;-75
2022/11/03 04:33:11;;;;;;;;;;;6.90;99.90;;;;;;5071965;28;20123;-75
2022/11/03 04:35:36;;;;;;;20.75;10.43;;;6.90;99.90;;;;;;5072857;28;19908;-75
2022/11/03 04:38:07;;;;;;;;;;;6.90;99.90;;;;;;5072178;28;20051;-75
2022/11/03 04:40:33;;;;;;;17.80;10.10;;;6.90;99.90;;;;;;5071750;28;19914;-75
2022/11/03 04:42:58;;;;;;;;;;;6.80;99.90;;;;;;5073053;28;20044;-76
2022/11/03 04:45:31;;;;;;;16.88;9.07;;;6.90;99.90;;;;;;5071630;28;19940;-76
2022/11/03 04:47:58;;;;;;;26.88;10.77;;;6.80;99.90;;;;;;5073119;28;20017;-74
2022/11/03 04:50:24;;;;;;;18.60;11.50;;;6.80;99.90;;;;;;5072853;28;20029;-75
2022/11/03 04:52:53;;;;;;;;;;;6.80;99.90;;;;;;5071645;28;20045;-75
2022/11/03 04:55:19;;;;;;;18.00;9.63;;;6.80;99.90;;;;;;5072703;28;19908;-75
2022/11/03 04:57:45;;;;;;;;;;;6.80;99.90;;;;;;5071857;28;20778;-75
2022/11/03 05:00:18;;;;;;;18.25;10.32;;;6.80;99.90;;;;;;5072517;28;19970;-74
2022/11/03 05:02:49;;;;;;;15.18;8.52;;;6.80;99.90;;;;;;5071661;28;20024;-76
2022/11/03 05:05:24;;;;;;;14.38;7.97;;;6.80;99.90;;;;;;5071634;28;20048;-76
2022/11/03 05:07:52;;;;;;;13.57;8.65;;;7.00;99.90;;;;;;5070957;28;20029;-75
2022/11/03 05:10:25;;;;;;;16.75;7.63;;;7.00;99.90;;;;;;5071181;28;20043;-75
2022/11/03 05:12:52;;;;;;;18.42;8.68;;;7.10;99.90;;;;;;5072316;28;20483;-75
2022/11/03 05:15:29;;;;;;;16.63;8.27;;;7.10;99.90;;;;;;5072277;28;20032;-74
2022/11/03 05:17:55;;;;;;;17.77;8.73;;;7.20;99.90;;;;;;5071092;28;20819;-75
2022/11/03 05:20:30;;;;;;;15.43;9.10;;;7.10;99.90;;;;;;5072657;28;20036;-75
2022/11/03 05:22:56;;;;;;;14.18;9.18;;;7.20;99.90;;;;;;5070967;28;20056;-75
2022/11/03 05:25:30;;;;;;;;;;;7.10;99.90;;;;;;5071389;28;20067;-76
2022/11/03 05:27:55;;;;;;;27.05;14.07;;;7.10;99.90;;;;;;5072429;28;20445;-75
2022/11/03 05:30:21;;;;;;;;;;;7.10;99.90;;;;;;5071142;28;20021;-75
2022/11/03 05:32:47;;;;;;;18.13;9.38;;;7.10;99.90;;;;;;5069794;28;19912;-75
2022/11/03 05:35:20;;;;;;;;;;;7.10;99.90;;;;;;5070576;28;20058;-74
2022/11/03 05:37:46;;;;;;;25.02;10.32;;;7.10;99.90;;;;;;5071510;28;19908;-75
2022/11/03 05:40:25;;;;;;;;;;;7.20;99.90;;;;;;5071078;28;20475;-75
2022/11/03 05:42:57;;;;;;;16.60;10.77;;;7.30;99.90;;;;;;5070713;28;19944;-75
2022/11/03 05:45:34;;;;;;;19.52;12.30;;;7.50;99.90;;;;;;5072261;28;20484;-75
2022/11/03 05:48:01;;;;;;;22.27;11.23;;;7.50;99.90;;;;;;5071557;28;20043;-75
2022/11/03 05:50:32;;;;;;;19.27;11.65;;;7.70;99.90;;;;;;5069854;28;20020;-74
2022/11/03 05:53:27;;;;;;;17.13;12.35;;;7.70;99.90;;;;;;5071573;28;20693;-75
2022/11/03 05:56:08;;;;;;;21.40;13.98;;;7.70;99.90;;;;;;5064261;28;20021;-74
2022/11/03 05:58:38;;;;;;;29.23;16.13;;;7.80;99.90;;;;;;5073011;28;20040;-75
2022/11/03 06:01:15;;;;;;;31.27;16.92;;;7.80;99.90;;;;;;5071107;28;20028;-75
2022/11/03 06:03:41;;;;;;;46.00;22.92;;;7.80;99.90;;;;;;5071231;28;20032;-75
2022/11/03 06:06:17;;;;;;;;;;;8.00;99.90;;;;;;5072935;28;20021;-75
2022/11/03 06:08:43;;;;;;;71.20;31.75;;;8.20;99.90;;;;;;5070533;28;19957;-76
2022/11/03 06:11:15;;;;;;;87.60;34.95;;;8.60;99.90;;;;;;5072357;28;20599;-75
2022/11/03 06:13:41;;;;;;;81.70;34.67;;;9.00;99.90;;;;;;5070811;28;20032;-75
2022/11/03 06:16:25;;;;;;;;;;;9.30;99.90;;;;;;5068158;28;20035;-76
2022/11/03 06:18:51;;;;;;;65.80;28.55;;;9.70;99.90;;;;;;5050457;28;20010;-76
2022/11/03 06:21:18;;;;;;;;;;;10.30;99.90;;;;;;5050875;28;20037;-75
2022/11/03 06:23:44;;;;;;;48.72;24.73;;;10.70;99.90;;;;;;5062187;28;19970;-76
2022/11/03 06:26:15;;;;;;;;;;;11.10;99.90;;;;;;5049643;28;20033;-76
2022/11/03 06:28:41;;;;;;;41.08;23.67;;;11.60;99.90;;;;;;5050622;28;20285;-75
2022/11/03 06:31:29;;;;;;;;;;;11.90;99.90;;;;;;5051307;28;20067;-76
2022/11/03 06:33:57;;;;;;;36.42;19.77;;;12.20;99.90;;;;;;5060267;28;19913;-76
2022/11/03 06:36:29;;;;;;;36.90;20.23;;;12.60;99.90;;;;;;5051117;28;20035;-76
2022/11/03 06:39:07;;;;;;;42.65;20.92;;;12.90;99.90;;;;;;5048530;28;20036;-75
2022/11/03 06:41:35;;;;;;;37.28;18.83;;;13.10;99.90;;;;;;5057166;28;20024;-75
2022/11/03 06:44:14;;;;;;;32.38;17.73;;;13.40;99.90;;;;;;5069845;28;20040;-75
2022/11/03 06:46:40;;;;;;;41.80;19.52;;;13.50;99.90;;;;;;5062292;28;20508;-76
2022/11/03 06:49:21;;;;;;;;;;;13.70;99.90;;;;;;5048949;28;20037;-76
2022/11/03 06:51:46;;;;;;;;;;;13.90;99.90;;;;;;5049364;28;19912;-76
2022/11/03 06:54:12;;;;;;;;;;;14.00;99.90;;;;;;5050137;28;19999;-77
2022/11/03 06:56:37;;;;;;;;;;;14.20;99.90;;;;;;5049336;28;19924;-77
2022/11/03 06:59:07;;;;;;;;;;;14.30;99.90;;;;;;5048580;28;19913;-76
2022/11/03 07:01:33;;;;;;;;;;;14.40;99.90;;;;;;5049465;28;19909;-77
2022/11/03 07:04:07;;;;;;;;;;;14.40;99.90;;;;;;5050511;28;19924;-77
2022/11/03 07:06:35;;;;;;;;;;;14.30;99.90;;;;;;5039466;28;20715;-77
2022/11/03 07:09:03;;;;;;;;;;;14.40;99.90;;;;;;5049689;28;20046;-74
2022/11/03 07:11:29;;;;;;;;;;;14.40;99.90;;;;;;5048937;28;20305;-76
2022/11/03 07:13:57;;;;;;;;;;;14.50;99.90;;;;;;5049521;28;19974;-78
2022/11/03 07:16:22;;;;;;;;;;;14.60;99.90;;;;;;5049389;28;20411;-78
2022/11/03 07:18:48;;;;;;;;;;;14.60;99.90;;;;;;5048379;28;20006;-77
2022/11/03 07:21:37;;;;;;;;;;;14.50;99.90;;;;;;5048925;28;20376;-77
2022/11/03 07:24:14;;;;;;;;;;;14.30;99.90;;;;;;5041064;28;19913;-76
2022/11/03 07:26:40;;;;;;;;;;;14.20;99.90;;;;;;5049872;28;19955;-78
2022/11/03 07:29:07;;;;;;;;;;;14.10;99.90;;;;;;5048509;28;19948;-77
2022/11/03 07:31:33;;;;;;;;;;;13.90;99.90;;;;;;5050547;28;19913;-77
2022/11/03 07:33:58;;;;;;;;;;;13.90;99.90;;;;;;5048426;28;20381;-76
2022/11/03 07:36:26;;;;;;;;;;;14.00;99.90;;;;;;5050414;28;19958;-76
2022/11/03 07:38:53;;;;;;;;;;;14.10;99.90;;;;;;5055781;28;20010;-75
2022/11/03 07:41:20;;;;;;;;;;;14.30;99.90;;;;;;5068330;28;19918;-77
2022/11/03 07:44:04;;;;;;;;;;;14.40;99.90;;;;;;5068486;28;19908;-76
2022/11/03 07:46:30;;;;;;;;;;;14.50;99.90;;;;;;5064336;28;19990;-77
2022/11/03 07:48:57;;;;;;;;;;;14.40;99.90;;;;;;5069547;28;20975;-76
2022/11/03 07:51:40;;;;;;;;;;;14.30;99.90;;;;;;5060655;28;19944;-75
2022/11/03 07:54:08;;;;;;;;;;;14.10;99.90;;;;;;5049711;28;19915;-78
2022/11/03 07:56:37;;;;;;;;;;;14.20;99.90;;;;;;5052724;28;19919;-76
2022/11/03 07:59:12;;;;;;;;;;;14.20;99.90;;;;;;5052545;28;19913;-76
2022/11/03 08:01:42;;;;;;;;;;;14.30;99.90;;;;;;5065084;28;19912;-77
2022/11/03 08:04:27;;;;;;;;;;;14.40;99.90;;;;;;5062226;28;20015;-77
2022/11/03 08:06:53;;;;;;;;;;;14.50;99.90;;;;;;5053130;28;19991;-77
2022/11/03 08:09:19;;;;;;;;;;;14.60;99.90;;;;;;5052452;28;20562;-77
2022/11/03 08:11:44;;;;;;;;;;;14.70;99.90;;;;;;5052399;28;20270;-77
2022/11/03 08:14:10;;;;;;;;;;;14.60;99.90;;;;;;5052083;28;19917;-77
2022/11/03 08:16:36;;;;;;;;;;;14.80;99.90;;;;;;5052034;28;20328;-77
2022/11/03 08:19:01;;;;;;;;;;;14.90;99.90;;;;;;5053705;28;19920;-76
2022/11/03 08:21:27;;;;;;;;;;;15.00;99.90;;;;;;5063903;28;20351;-77
2022/11/03 08:23:52;;;;;;;;;;;15.10;99.90;;;;;;5052053;28;20389;-77
2022/11/03 08:26:18;;;;;;;;;;;15.40;99.90;;;;;;5053451;28;20011;-77
2022/11/03 08:28:44;;;;;;;;;;;15.70;99.90;;;;;;5052296;28;20301;-76
2022/11/03 08:31:09;;;;;;;;;;;15.90;99.90;;;;;;5051888;28;19916;-76
2022/11/03 08:33:35;;;;;;;;;;;16.10;99.90;;;;;;5052669;28;19924;-76
2022/11/03 08:36:01;;;;;;;;;;;16.10;99.90;;;;;;5051492;28;19931;-76
2022/11/03 08:38:27;;;;;;;;;;;16.40;99.90;;;;;;5051445;28;20369;-77
2022/11/03 08:40:53;;;;;;;;;;;16.50;99.90;;;;;;5051765;28;19983;-76
2022/11/03 08:43:18;;;;;;;;;;;16.40;99.90;;;;;;5052660;28;20300;-76
2022/11/03 08:45:44;;;;;;;;;;;16.50;99.90;;;;;;5052315;28;19948;-76
2022/11/03 08:48:10;;;;;;;;;;;16.60;99.90;;;;;;5053207;28;19954;-75
2022/11/03 08:50:35;;;;;;;;;;;16.50;99.90;;;;;;5063230;28;19911;-76
2022/11/03 08:53:01;;;;;;;;;;;16.50;99.90;;;;;;5050969;28;20392;-77
2022/11/03 08:55:26;;;;;;;;;;;16.50;99.90;;;;;;5052316;28;19905;-76
2022/11/03 08:57:52;;;;;;;;;;;16.50;99.90;;;;;;5052992;28;20437;-77
2022/11/03 09:00:18;;;;;;;;;;;16.20;99.90;;;;;;5054603;28;19913;-78
2022/11/03 09:02:43;;;;;;;;;;;16.30;99.90;;;;;;5052062;28;20297;-76
2022/11/03 09:05:09;;;;;;;;;;;16.10;99.90;;;;;;5051277;28;19966;-76
2022/11/03 09:07:35;;;;;;;;;;;16.00;99.90;;;;;;5050981;28;19977;-77
2022/11/03 09:10:00;;;;;;;;;;;15.80;99.90;;;;;;5052359;28;19912;-76
2022/11/03 09:12:26;;;;;;;;;;;15.60;99.90;;;;;;5052164;28;19920;-76
2022/11/03 09:14:51;;;;;;;;;;;15.70;99.90;;;;;;5070016;28;20045;-76
2022/11/03 09:17:17;;;;;;;;;;;15.70;99.90;;;;;;5052173;28;19919;-75
2022/11/03 09:19:42;;;;;;;;;;;15.40;99.90;;;;;;5052448;28;19913;-75
2022/11/03 09:22:08;;;;;;;;;;;15.20;99.90;;;;;;5052165;28;19992;-76
2022/11/03 09:24:33;;;;;;;;;;;15.10;99.90;;;;;;5050418;28;20254;-76
2022/11/03 09:26:59;;;;;;;;;;;14.80;99.90;;;;;;5065751;28;19908;-76
2022/11/03 09:29:24;;;;;;;;;;;14.60;99.90;;;;;;5071000;28;19912;-77
2022/11/03 09:31:50;;;;;;;;;;;14.40;99.90;;;;;;5062941;28;19913;-76
2022/11/03 09:34:15;;;;;;;;;;;14.30;99.90;;;;;;5050344;28;19920;-77
2022/11/03 09:36:41;;;;;;;;;;;14.20;99.90;;;;;;5057385;28;19909;-75
2022/11/03 09:39:06;;;;;;;;;;;14.00;99.90;;;;;;5051776;28;19916;-77
2022/11/03 09:41:32;;;;;;;;;;;14.00;99.90;;;;;;5051789;28;20327;-76
2022/11/03 09:43:57;;;;;;;;;;;14.00;99.90;;;;;;5061158;28;19944;-76
2022/11/03 09:46:23;;;;;;;;;;;14.00;99.90;;;;;;5051677;28;19913;-78
2022/11/03 09:48:49;;;;;;;;;;;13.80;99.90;;;;;;5056493;28;19924;-77
2022/11/03 09:51:19;;;;;;;;;;;13.70;99.90;;;;;;5055230;28;19951;-76
2022/11/03 09:53:44;;;;;;;;;;;13.60;99.90;;;;;;5050526;28;19908;-78
2022/11/03 09:56:10;;;;;;;;;;;13.80;99.90;;;;;;5062416;28;19915;-76
2022/11/03 09:58:35;;;;;;;;;;;13.80;99.90;;;;;;5063501;28;19908;-77
2022/11/03 10:01:01;;;;;;;;;;;13.90;99.90;;;;;;5051454;28;19948;-76
2022/11/03 10:03:27;;;;;;;;;;;13.90;99.90;;;;;;5051384;28;19917;-77
2022/11/03 10:05:53;;;;;;;;;;;13.90;99.90;;;;;;5052686;28;19991;-75
2022/11/03 10:08:26;;;;;;;;;;;13.90;99.90;;;;;;5071058;28;20460;-77
2022/11/03 10:10:52;;;;;;;;;;;13.90;99.90;;;;;;5068774;28;19938;-77
2022/11/03 10:13:25;;;;;;;;;;;13.70;99.90;;;;;;5061186;28;20451;-77
2022/11/03 10:15:51;;;;;;;;;;;13.70;99.90;;;;;;5056774;28;19948;-77
2022/11/03 10:18:17;;;;;;;;;;;13.50;99.90;;;;;;5068312;28;19970;-77
2022/11/03 10:20:43;;;;;;;;;;;13.50;99.90;;;;;;5049514;28;20000;-77
2022/11/03 10:23:09;;;;;;;;;;;13.40;99.90;;;;;;5049608;28;20003;-78
2022/11/03 10:25:37;;;;;;;;;;;13.40;99.90;;;;;;5052854;28;19984;-78
2022/11/03 10:28:13;;;;;;;;;;;13.40;99.90;;;;;;5068221;28;19912;-76
2022/11/03 10:30:57;;;;;;;;;;;13.40;99.90;;;;;;5070684;28;19912;-76
2022/11/03 10:33:30;;;;;;;;;;;13.40;99.90;;;;;;5069425;28;19916;-76
2022/11/03 10:35:57;;;;;;;;;;;13.30;99.90;;;;;;5055994;28;19951;-77
2022/11/03 10:38:30;;;;;;;;;;;13.20;99.90;;;;;;5056926;28;19908;-75
2022/11/03 10:41:07;;;;;;;;;;;13.30;99.90;;;;;;5063768;28;19915;-76
2022/11/03 10:43:33;;;;;;;;;;;13.30;99.90;;;;;;5051257;28;20006;-76
2022/11/03 10:46:08;;;;;;;;;;;13.20;99.90;;;;;;5070399;28;19970;-76
2022/11/03 10:48:34;;;;;;;;;;;13.20;99.90;;;;;;5067995;28;19924;-77
2022/11/03 10:50:59;;;;;;;;;;;13.30;99.90;;;;;;5068308;28;19935;-76
2022/11/03 10:53:25;;;;;;;;;;;13.30;99.90;;;;;;5052357;28;19971;-75
2022/11/03 10:55:50;;;;;;;;;;;13.20;99.90;;;;;;5053824;28;19912;-75
2022/11/03 10:58:16;;;;;;;;;;;13.30;99.90;;;;;;5058668;28;20361;-76
2022/11/03 11:00:42;;;;;;;;;;;13.40;99.90;;;;;;5050153;28;20379;-75
2022/11/03 11:03:07;;;;;;;;;;;13.40;99.90;;;;;;5055294;28;19914;-76
2022/11/03 11:05:33;;;;;;;;;;;13.40;99.90;;;;;;5054637;28;19987;-77
2022/11/03 11:07:58;;;;;;;;;;;13.30;99.90;;;;;;5048869;28;19909;-76
2022/11/03 11:10:28;;;;;;;;;;;13.30;99.90;;;;;;5048806;28;19904;-78
2022/11/03 11:13:01;;;;;;;;;;;13.30;99.90;;;;;;5049648;28;19921;-77
2022/11/03 11:15:37;;;;;;;;;;;13.30;99.90;;;;;;5048657;28;19951;-78
2022/11/03 11:18:03;;;;;;;;;;;13.30;99.90;;;;;;5049846;28;19909;-76
2022/11/03 11:20:35;;;;;;;;;;;13.40;99.90;;;;;;5048239;28;19913;-78
2022/11/03 11:23:19;;;;;;;;;;;13.40;99.90;;;;;;5048355;28;20237;-80
2022/11/03 11:26:03;;;;;;;;;;;13.40;99.90;;;;;;5048444;28;19916;-77
2022/11/03 11:28:29;;;;;;;;;;;13.40;99.90;;;;;;5048415;28;20008;-77
2022/11/03 11:30:55;;;;;;;;;;;13.50;99.90;;;;;;5047776;28;20004;-76
2022/11/03 11:33:22;;;;;;;;;;;13.40;99.90;;;;;;5049739;28;19923;-77
2022/11/03 11:35:47;;;;;;;;;;;13.40;99.90;;;;;;5048666;28;19908;-77
2022/11/03 11:38:31;;;;;;;;;;;13.20;99.90;;;;;;5052046;28;19916;-76
2022/11/03 11:40:56;;;;;;;;;;;13.00;99.90;;;;;;5049696;28;19918;-77
2022/11/03 11:43:22;;;;;;;;;;;13.00;99.90;;;;;;5049701;28;20285;-78
2022/11/03 11:46:23;;;;;;;;;;;12.90;99.90;;;;;;5062476;28;20373;-77
2022/11/03 11:48:54;;;;;;;;;;;13.00;99.90;;;;;;4994058;28;19910;-77
2022/11/03 11:51:19;;;;;;;;;;;12.90;99.90;;;;;;5058873;28;19947;-77
2022/11/03 11:53:45;;;;;;;;;;;12.90;99.90;;;;;;5068236;28;19927;-77
2022/11/03 11:56:11;;;;;;;;;;;13.00;99.90;;;;;;5065585;28;19908;-77
2022/11/03 11:58:40;;;;;;;;;;;12.90;99.90;;;;;;5057867;28;19920;-76
2022/11/03 12:01:29;;;;;;;;;;;12.90;99.90;;;;;;5048108;28;20285;-75
2022/11/03 12:03:56;;;;;;;;;;;13.00;99.90;;;;;;5047544;28;19915;-76
2022/11/03 12:06:31;;;;;;;;;;;12.90;99.90;;;;;;5058188;28;19909;-76
2022/11/03 12:09:03;;;;;;;;;;;12.90;99.90;;;;;;5061406;28;20025;-76
2022/11/03 12:11:39;;;;;;;;;;;12.90;99.90;;;;;;5051577;28;19917;-76
2022/11/03 12:14:19;;;;;;;;;;;12.90;99.90;;;;;;5053748;28;19908;-76
2022/11/03 12:16:45;;;;;;;;;;;12.80;99.90;;;;;;5055287;28;19908;-75
2022/11/03 12:19:29;;;;;;;;;;;12.70;99.90;;;;;;5065591;28;20349;-76
2022/11/03 12:21:55;;;;;;;;;;;12.60;99.90;;;;;;5064172;28;19932;-76
2022/11/03 12:24:24;;;;;;;;;;;12.50;99.90;;;;;;5049183;28;20435;-77
2022/11/03 12:26:49;;;;;;;;;;;12.40;99.90;;;;;;5047991;28;19908;-77
2022/11/03 12:29:15;;;;;;;;;;;12.40;99.90;;;;;;5047675;28;19913;-75
2022/11/03 12:31:40;;;;;;;;;;;12.50;99.90;;;;;;5047988;28;19917;-76
2022/11/03 12:34:06;;;;;;;;;;;12.50;99.90;;;;;;5053754;28;19915;-76
2022/11/03 12:36:31;;;;;;;;;;;12.60;99.90;;;;;;5055333;28;19963;-76
2022/11/03 12:38:57;;;;;;;;;;;12.60;99.90;;;;;;5050488;28;20361;-76
2022/11/03 12:41:25;;;;;;;;;;;12.60;99.90;;;;;;5056044;28;19979;-76
2022/11/03 12:43:52;;;;;;;;;;;12.50;99.90;;;;;;5060782;28;20425;-77
2022/11/03 12:46:18;;;;;;;;;;;12.50;99.90;;;;;;5060698;28;20006;-75
2022/11/03 12:48:44;;;;;;;;;;;12.60;99.90;;;;;;5068862;28;20337;-75
2022/11/03 12:51:12;;;;;;;;;;;12.50;99.90;;;;;;5071652;28;19943;-75
2022/11/03 12:53:38;;;;;;;;;;;12.40;99.90;;;;;;5071269;28;19908;-75
2022/11/03 12:56:04;;;;;;;;;;;12.40;99.90;;;;;;5072441;28;20722;-76
2022/11/03 12:58:29;;;;;;;;;;;12.40;99.90;;;;;;5072458;28;19915;-78
2022/11/03 13:00:55;;;;;;;;;;;12.30;99.90;;;;;;5065033;28;19912;-75
2022/11/03 13:03:20;;;;;;;;;;;12.30;99.90;;;;;;5061617;28;19982;-75
2022/11/03 13:05:47;;;;;;;;;;;12.40;99.90;;;;;;5051326;28;19913;-76
2022/11/03 13:08:12;;;;;;;;;;;12.40;99.90;;;;;;5057843;28;19908;-76
2022/11/03 13:10:39;;;;;;;;;;;12.20;99.90;;;;;;5052622;28;19924;-75
2022/11/03 13:13:05;;;;;;;;;;;12.10;99.90;;;;;;5050815;28;20297;-76
2022/11/03 13:15:30;;;;;;;;;;;12.10;99.90;;;;;;5055063;28;19916;-75
2022/11/03 13:17:56;;;;;;;;;;;12.10;99.90;;;;;;5071694;28;19913;-76
2022/11/03 13:20:21;;;;;;;;;;;12.10;99.90;;;;;;5072147;28;20700;-77
2022/11/03 13:22:50;;;;;;;;;;;12.00;99.90;;;;;;5070498;28;19908;-78
2022/11/03 13:25:17;;;;;;;;;;;12.10;99.90;;;;;;5072455;28;19911;-75
2022/11/03 13:27:43;;;;;;;;;;;12.00;99.90;;;;;;5072131;28;19905;-75
2022/11/03 13:30:08;;;;;;;;;;;12.00;99.90;;;;;;5072024;28;19910;-75
2022/11/03 13:32:34;;;;;;;;;;;12.00;99.90;;;;;;5070375;28;19912;-76
2022/11/03 13:35:00;;;;;;;;;;;12.00;99.90;;;;;;5070466;28;20280;-77
2022/11/03 13:37:26;;;;;;;;;;;12.00;99.90;;;;;;5071651;28;19911;-75
2022/11/03 13:39:51;;;;;;;;;;;12.00;99.90;;;;;;5071659;28;19905;-76
2022/11/03 13:42:17;;;;;;;;;;;12.00;99.90;;;;;;5070187;28;19914;-77
2022/11/03 13:44:42;;;;;;;;;;;12.00;99.90;;;;;;5071481;28;19910;-77
2022/11/03 13:47:08;;;;;;;;;;;12.00;99.90;;;;;;5070426;28;19930;-76
2022/11/03 13:49:34;;;;;;;;;;;12.00;99.90;;;;;;5071301;28;19909;-77
2022/11/03 13:51:59;;;;;;;;;;;12.00;99.90;;;;;;5071449;28;20366;-77
2022/11/03 13:54:25;;;;;;;;;;;11.90;99.90;;;;;;5069163;28;20436;-77
2022/11/03 13:56:52;;;;;;;;;;;11.90;99.90;;;;;;5069881;28;19998;-77
2022/11/03 13:59:20;;;;;;;;;;;12.00;99.90;;;;;;5070226;28;19951;-77
2022/11/03 14:01:46;;;;;;;;;;;11.90;99.90;;;;;;5071319;28;19905;-78
2022/11/03 14:04:12;;;;;;;;;;;11.90;99.90;;;;;;5071068;28;20365;-76
2022/11/03 14:06:37;;;;;;;;;;;11.90;99.90;;;;;;5069775;28;20002;-77
2022/11/03 14:09:03;;;;;;;;;;;11.90;99.90;;;;;;5069667;28;19944;-77